createdAt,value
2023-03-04T00:00:59.945Z,60.30
2023-03-04T00:03:28.213Z,61.00
2023-03-04T00:05:56.400Z,61.60
2023-03-04T00:08:24.567Z,60.90
2023-03-04T00:10:52.735Z,60.40
2023-03-04T00:13:22.151Z,59.60
2023-03-04T00:15:52.213Z,58.60
2023-03-04T00:18:21.475Z,57.40
2023-03-04T00:20:49.701Z,56.50
2023-03-04T00:23:18.175Z,55.90
2023-03-04T00:25:46.643Z,56.80
2023-03-04T00:28:14.816Z,57.40
2023-03-04T00:30:43.035Z,57.20
2023-03-04T00:33:12.574Z,57.00
2023-03-04T00:35:41.257Z,57.50
2023-03-04T00:38:11.015Z,58.30
2023-03-04T00:40:39.282Z,59.20
2023-03-04T00:43:07.454Z,59.60
2023-03-04T00:45:35.680Z,59.40
2023-03-04T00:48:04.167Z,59.20
2023-03-04T00:50:33.874Z,59.20
2023-03-04T00:53:02.791Z,60.10
2023-03-04T00:55:31.163Z,60.80
2023-03-04T00:57:59.315Z,60.80
2023-03-04T01:00:29.570Z,59.40
2023-03-04T01:02:58.744Z,59.00
2023-03-04T01:05:27.028Z,58.50
2023-03-04T01:07:56.551Z,58.20
2023-03-04T01:10:27.513Z,58.30
2023-03-04T01:12:55.790Z,58.10
2023-03-04T01:15:24.135Z,58.40
2023-03-04T01:17:52.441Z,59.40
2023-03-04T01:20:20.904Z,59.00
2023-03-04T01:22:49.101Z,60.00
2023-03-04T01:25:18.823Z,60.80
2023-03-04T01:27:47.026Z,61.70
2023-03-04T01:30:15.376Z,62.00
2023-03-04T01:32:43.557Z,61.10
2023-03-04T01:35:13.218Z,60.30
2023-03-04T01:37:41.420Z,60.30
2023-03-04T01:40:10.960Z,59.40
2023-03-04T01:42:41.273Z,59.40
2023-03-04T01:45:14.833Z,59.20
2023-03-04T01:47:48.372Z,59.30
2023-03-04T01:50:22.106Z,60.20
2023-03-04T01:52:51.094Z,60.10
2023-03-04T01:55:21.236Z,61.30
2023-03-04T01:57:51.789Z,61.60
2023-03-04T02:00:24.542Z,61.90
2023-03-04T02:02:56.229Z,61.20
2023-03-04T02:05:24.638Z,61.10
2023-03-04T02:07:54.086Z,61.00
2023-03-04T02:10:22.611Z,59.90
2023-03-04T02:12:53.366Z,58.80
2023-03-04T02:15:22.356Z,59.20
2023-03-04T02:17:50.656Z,59.60
2023-03-04T02:20:31.969Z,59.70
2023-03-04T02:23:08.259Z,59.60
2023-03-04T02:25:43.694Z,59.20
2023-03-04T02:28:13.888Z,59.50
2023-03-04T02:30:42.202Z,58.80
2023-03-04T02:33:16.626Z,58.50
2023-03-04T02:35:44.914Z,58.90
2023-03-04T02:38:14.122Z,58.70
2023-03-04T02:40:47.720Z,59.00
2023-03-04T02:43:18.082Z,59.00
2023-03-04T02:45:48.149Z,59.50
2023-03-04T02:48:20.545Z,59.60
2023-03-04T02:50:50.966Z,59.60
2023-03-04T02:53:20.656Z,59.30
2023-03-04T02:55:50.212Z,59.40
2023-03-04T02:58:21.993Z,59.00
2023-03-04T03:00:50.162Z,58.90
2023-03-04T03:03:18.499Z,58.90
2023-03-04T03:05:46.900Z,58.40
2023-03-04T03:08:15.556Z,59.10
2023-03-04T03:10:43.952Z,57.80
2023-03-04T03:13:12.880Z,58.00
2023-03-04T03:15:43.094Z,57.70
2023-03-04T03:18:12.021Z,57.60
2023-03-04T03:20:40.250Z,58.50
2023-03-04T03:23:09.636Z,59.80
2023-03-04T03:25:37.836Z,60.30
2023-03-04T03:28:07.449Z,59.70
2023-03-04T03:30:35.690Z,59.20
2023-03-04T03:33:08.127Z,58.30
2023-03-04T03:35:37.861Z,57.90
2023-03-04T03:38:06.047Z,57.80
2023-03-04T03:40:34.226Z,58.10
2023-03-04T03:43:02.460Z,58.00
2023-03-04T03:45:30.628Z,57.90
2023-03-04T03:47:58.840Z,57.60
2023-03-04T03:50:29.415Z,57.60
2023-03-04T03:52:57.702Z,56.80
2023-03-04T03:55:25.885Z,56.50
2023-03-04T03:57:54.263Z,56.70
2023-03-04T04:00:23.096Z,57.30
2023-03-04T04:02:51.369Z,57.70
2023-03-04T04:05:19.666Z,58.60
2023-03-04T04:07:49.548Z,58.80
2023-03-04T04:10:17.874Z,59.00
2023-03-04T04:12:46.088Z,58.20
2023-03-04T04:15:14.839Z,58.00
2023-03-04T04:17:43.015Z,57.20
2023-03-04T04:20:12.281Z,57.20
2023-03-04T04:22:40.503Z,57.40
2023-03-04T04:25:11.118Z,57.00
2023-03-04T04:27:39.329Z,56.00
2023-03-04T04:30:09.147Z,55.90
2023-03-04T04:32:37.307Z,55.40
2023-03-04T04:35:06.135Z,55.40
2023-03-04T04:37:34.412Z,57.20
2023-03-04T04:40:02.607Z,57.50
2023-03-04T04:42:32.132Z,57.80
2023-03-04T04:45:00.464Z,59.00
2023-03-04T04:47:28.644Z,59.10
2023-03-04T04:49:56.882Z,59.00
2023-03-04T04:52:25.087Z,59.30
2023-03-04T04:54:53.259Z,59.00
2023-03-04T04:57:21.456Z,59.60
2023-03-04T04:59:51.081Z,59.70
2023-03-04T05:02:19.263Z,59.60
2023-03-04T05:04:47.423Z,59.60
2023-03-04T05:07:15.616Z,57.90
2023-03-04T05:09:43.811Z,56.80
2023-03-04T05:12:12.035Z,56.30
2023-03-04T05:14:40.243Z,55.70
2023-03-04T05:17:09.824Z,56.30
2023-03-04T05:19:37.998Z,56.30
2023-03-04T05:22:06.185Z,56.50
2023-03-04T05:24:34.751Z,56.50
2023-03-04T05:27:03.142Z,56.10
2023-03-04T05:29:31.296Z,56.70
2023-03-04T05:31:59.593Z,57.30
2023-03-04T05:34:29.156Z,58.30
2023-03-04T05:36:57.347Z,58.90
2023-03-04T05:39:25.533Z,60.00
2023-03-04T05:41:53.707Z,60.60
2023-03-04T05:44:21.891Z,59.70
2023-03-04T05:46:50.093Z,58.50
2023-03-04T05:49:18.463Z,59.20
2023-03-04T05:51:47.977Z,60.40
2023-03-04T05:54:16.331Z,60.50
2023-03-04T05:56:44.519Z,60.90
2023-03-04T05:59:13.017Z,62.20
2023-03-04T06:01:41.169Z,60.30
2023-03-04T06:04:09.701Z,59.60
2023-03-04T06:06:37.916Z,59.10
2023-03-04T06:09:07.455Z,58.10
2023-03-04T06:11:36.467Z,57.30
2023-03-04T06:14:07.711Z,57.50
2023-03-04T06:16:35.963Z,58.70
2023-03-04T06:19:04.274Z,59.60
2023-03-04T06:21:32.453Z,59.60
2023-03-04T06:24:00.646Z,59.40
2023-03-04T06:26:30.172Z,60.00
2023-03-04T06:28:58.398Z,60.50
2023-03-04T06:31:26.650Z,60.50
2023-03-04T06:33:54.884Z,60.20
2023-03-04T06:36:23.097Z,60.50
2023-03-04T06:38:51.405Z,61.10
2023-03-04T06:41:19.678Z,61.70
2023-03-04T06:43:49.234Z,61.70
2023-03-04T06:46:17.419Z,60.40
2023-03-04T06:48:45.643Z,60.60
2023-03-04T06:51:15.111Z,59.90
2023-03-04T06:53:43.806Z,58.40
2023-03-04T06:56:15.981Z,57.50
2023-03-04T06:58:44.767Z,57.10
2023-03-04T07:01:19.090Z,58.30
2023-03-04T07:03:48.461Z,59.60
2023-03-04T07:06:19.041Z,60.40
2023-03-04T07:08:47.464Z,59.80
2023-03-04T07:11:16.335Z,59.40
2023-03-04T07:13:44.657Z,59.20
2023-03-04T07:16:15.600Z,60.60
2023-03-04T07:18:48.316Z,62.50
2023-03-04T07:21:17.458Z,63.00
2023-03-04T07:23:45.849Z,62.90
2023-03-04T07:26:14.452Z,62.70
2023-03-04T07:28:43.432Z,63.80
2023-03-04T07:31:13.397Z,63.70
2023-03-04T07:33:42.036Z,62.80
2023-03-04T07:36:13.106Z,61.80
2023-03-04T07:38:43.858Z,61.10
2023-03-04T07:41:12.208Z,61.60
2023-03-04T07:43:40.403Z,61.80
2023-03-04T07:46:09.161Z,60.80
2023-03-04T07:48:37.587Z,60.00
2023-03-04T07:51:09.136Z,60.90
2023-03-04T07:53:40.476Z,61.00
2023-03-04T07:56:12.590Z,60.00
2023-03-04T07:58:40.893Z,58.70
2023-03-04T08:01:12.972Z,59.10
2023-03-04T08:03:41.503Z,58.90
2023-03-04T08:06:11.321Z,58.90
2023-03-04T08:08:41.105Z,59.50
2023-03-04T08:11:11.099Z,60.20
2023-03-04T08:13:39.905Z,60.60
2023-03-04T08:16:09.107Z,60.40
2023-03-04T08:18:39.635Z,59.80
2023-03-04T08:21:10.700Z,58.20
2023-03-04T08:23:41.930Z,57.90
2023-03-04T08:26:13.177Z,58.30
2023-03-04T08:28:41.619Z,58.10
2023-03-04T08:31:09.873Z,57.30
2023-03-04T08:33:38.135Z,57.10
2023-03-04T08:36:10.188Z,57.90
2023-03-04T08:38:39.812Z,58.20
2023-03-04T08:41:08.398Z,57.90
2023-03-04T08:43:36.776Z,58.20
2023-03-04T08:46:05.296Z,58.00
2023-03-04T08:48:33.661Z,57.70
2023-03-04T08:51:02.209Z,57.60
2023-03-04T08:53:33.416Z,57.60
2023-03-04T08:56:02.976Z,57.00
2023-03-04T08:58:31.164Z,57.00
2023-03-04T09:01:00.785Z,57.50
2023-03-04T09:03:29.649Z,57.00
2023-03-04T09:05:58.013Z,56.40
2023-03-04T09:08:26.283Z,56.10
2023-03-04T09:10:56.013Z,57.10
2023-03-04T09:13:28.454Z,56.90
2023-03-04T09:15:56.706Z,57.50
2023-03-04T09:18:25.664Z,57.70
2023-03-04T09:20:54.425Z,56.90
2023-03-04T09:23:23.171Z,56.60
2023-03-04T09:25:51.348Z,56.80
2023-03-04T09:28:20.397Z,56.50
2023-03-04T09:30:49.923Z,56.00
2023-03-04T09:33:18.242Z,56.40
2023-03-04T09:35:48.793Z,57.20
2023-03-04T09:38:16.992Z,57.60
2023-03-04T09:40:48.157Z,57.60
2023-03-04T09:43:22.852Z,56.90
2023-03-04T09:45:56.953Z,55.80
2023-03-04T09:48:28.852Z,55.70
2023-03-04T09:51:18.125Z,55.30
2023-03-04T09:53:54.200Z,55.00
2023-03-04T09:56:23.505Z,55.00
2023-03-04T09:59:04.272Z,55.30
2023-03-04T10:01:37.889Z,55.80
2023-03-04T10:04:14.085Z,56.40
2023-03-04T10:06:43.364Z,56.70
2023-03-04T10:09:16.484Z,56.80
2023-03-04T10:11:47.673Z,57.00
2023-03-04T10:14:39.176Z,57.20
2023-03-04T10:17:18.629Z,57.70
2023-03-04T10:19:55.390Z,56.20
2023-03-04T10:22:29.944Z,55.50
2023-03-04T10:25:02.818Z,55.60
2023-03-04T10:27:32.707Z,55.40
2023-03-04T10:30:02.038Z,56.10
2023-03-04T10:32:31.636Z,56.70
2023-03-04T10:34:59.830Z,56.70
2023-03-04T10:37:49.101Z,57.60
2023-03-04T10:40:25.721Z,57.90
2023-03-04T10:43:07.103Z,58.10
2023-03-04T10:45:40.880Z,57.80
2023-03-04T10:48:20.188Z,58.20
2023-03-04T10:50:48.556Z,56.30
2023-03-04T10:53:35.024Z,55.40
2023-03-04T10:56:03.405Z,55.90
2023-03-04T10:58:34.569Z,55.30
2023-03-04T11:01:05.704Z,55.60
2023-03-04T11:03:36.933Z,57.00
2023-03-04T11:06:08.188Z,57.70
2023-03-04T11:08:36.584Z,58.10
2023-03-04T11:11:06.928Z,58.40
2023-03-04T11:13:36.236Z,58.20
2023-03-04T11:16:07.000Z,58.00
2023-03-04T11:18:43.660Z,58.60
2023-03-04T11:21:18.672Z,58.10
2023-03-04T11:23:50.257Z,56.90
2023-03-04T11:26:21.827Z,56.70
2023-03-04T11:28:55.424Z,56.20
2023-03-04T11:31:28.332Z,56.20
2023-03-04T11:34:02.717Z,56.40
2023-03-04T11:36:36.436Z,55.50
2023-03-04T11:39:10.885Z,55.90
2023-03-04T11:41:43.805Z,56.40
2023-03-04T11:44:14.151Z,58.20
2023-03-04T11:47:07.460Z,58.50
2023-03-04T11:50:01.697Z,59.00
2023-03-04T11:52:42.058Z,59.70
2023-03-04T11:55:28.120Z,60.40
2023-03-04T11:58:07.734Z,59.20
2023-03-04T12:00:42.067Z,59.30
2023-03-04T12:03:38.959Z,60.50
2023-03-04T12:06:16.417Z,60.90
2023-03-04T12:09:04.269Z,62.50
2023-03-04T12:11:45.100Z,62.70
2023-03-04T12:14:23.061Z,63.40
2023-03-04T12:17:20.524Z,63.80
2023-03-04T12:20:04.960Z,63.70
2023-03-04T12:22:44.994Z,63.70
2023-03-04T12:25:45.559Z,63.20
2023-03-04T12:28:32.156Z,62.90
2023-03-04T12:31:11.137Z,63.20
2023-03-04T12:33:49.999Z,62.40
2023-03-04T12:36:27.535Z,62.00
2023-03-04T12:39:22.155Z,62.50
2023-03-04T12:41:59.891Z,62.50
2023-03-04T12:44:32.519Z,62.90
2023-03-04T12:47:28.275Z,64.00
2023-03-04T12:50:22.019Z,63.10
2023-03-04T12:52:57.433Z,61.80
2023-03-04T12:55:36.120Z,61.50
2023-03-04T12:58:05.123Z,61.40
2023-03-04T13:00:47.815Z,62.10
2023-03-04T13:03:21.903Z,60.70
2023-03-04T13:06:06.484Z,59.90
2023-03-04T13:08:43.384Z,59.30
2023-03-04T13:11:41.521Z,58.20
2023-03-04T13:14:28.175Z,59.40
2023-03-04T13:16:57.254Z,59.60
2023-03-04T13:19:53.040Z,59.80
2023-03-04T13:23:01.079Z,59.30
2023-03-04T13:25:36.107Z,58.90
2023-03-04T13:28:20.544Z,59.50
2023-03-04T13:31:17.069Z,59.90
2023-03-04T13:33:59.745Z,58.50
2023-03-04T13:36:32.347Z,58.40
2023-03-04T13:39:02.436Z,58.70
2023-03-04T13:41:32.771Z,58.70
2023-03-04T13:44:03.398Z,59.00
2023-03-04T13:46:43.529Z,58.50
2023-03-04T13:49:23.594Z,58.60
2023-03-04T13:51:52.193Z,58.80
2023-03-04T13:54:27.580Z,59.00
2023-03-04T13:57:18.980Z,59.80
2023-03-04T13:59:50.329Z,59.20
2023-03-04T14:02:22.521Z,58.10
2023-03-04T14:04:59.581Z,57.70
2023-03-04T14:07:29.622Z,56.10
2023-03-04T14:10:00.220Z,55.80
2023-03-04T14:12:31.469Z,55.10
2023-03-04T14:15:04.299Z,55.30
2023-03-04T14:17:36.491Z,55.40
2023-03-04T14:20:06.488Z,55.80
2023-03-04T14:22:41.196Z,56.80
2023-03-04T14:25:22.859Z,57.00
2023-03-04T14:27:51.985Z,57.20
2023-03-04T14:30:44.414Z,56.30
2023-03-04T14:33:19.919Z,57.00
2023-03-04T14:35:49.666Z,57.40
2023-03-04T14:38:24.258Z,56.60
2023-03-04T14:40:54.907Z,57.40
2023-03-04T14:43:24.328Z,56.70
2023-03-04T14:45:57.002Z,56.40
2023-03-04T14:48:28.976Z,56.00
2023-03-04T14:50:58.887Z,55.80
2023-03-04T14:53:28.534Z,56.20
2023-03-04T14:55:58.950Z,56.30
2023-03-04T14:58:29.006Z,57.20
2023-03-04T15:01:15.274Z,55.80
2023-03-04T15:03:45.506Z,55.50
2023-03-04T15:06:19.489Z,56.30
2023-03-04T15:08:48.767Z,55.60
2023-03-04T15:11:24.612Z,55.60
2023-03-04T15:13:54.994Z,56.20
2023-03-04T15:16:28.777Z,54.90
2023-03-04T15:19:03.251Z,54.00
2023-03-04T15:21:37.823Z,53.90
2023-03-04T15:24:08.274Z,53.80
2023-03-04T15:26:41.273Z,53.00
2023-03-04T15:29:14.987Z,53.20
2023-03-04T15:31:48.180Z,53.30
2023-03-04T15:34:18.883Z,53.10
2023-03-04T15:36:49.860Z,53.20
2023-03-04T15:39:19.567Z,52.70
2023-03-04T15:41:48.346Z,52.90
2023-03-04T15:44:16.790Z,53.00
2023-03-04T15:46:46.356Z,52.20
2023-03-04T15:49:16.377Z,51.30
2023-03-04T15:51:44.569Z,51.40
2023-03-04T15:54:16.855Z,50.90
2023-03-04T15:56:46.987Z,51.00
2023-03-04T15:59:17.045Z,50.00
2023-03-04T16:01:47.065Z,50.10
2023-03-04T16:04:16.747Z,50.60
2023-03-04T16:06:46.621Z,51.00
2023-03-04T16:09:16.978Z,51.40
2023-03-04T16:11:47.560Z,51.20
2023-03-04T16:14:16.876Z,50.70
2023-03-04T16:16:47.937Z,50.80
2023-03-04T16:19:16.311Z,51.70
2023-03-04T16:21:44.573Z,52.00
2023-03-04T16:24:18.277Z,52.10
2023-03-04T16:26:46.612Z,52.50
2023-03-04T16:29:14.984Z,53.00
2023-03-04T16:31:43.448Z,53.40
2023-03-04T16:34:13.073Z,54.20
2023-03-04T16:36:41.498Z,53.30
2023-03-04T16:39:19.764Z,52.90
2023-03-04T16:41:48.067Z,52.20
2023-03-04T16:44:16.231Z,52.10
2023-03-04T16:46:44.513Z,51.60
2023-03-04T16:49:14.126Z,51.40
2023-03-04T16:51:44.401Z,51.00
2023-03-04T16:54:17.486Z,51.00
2023-03-04T16:56:45.690Z,51.30
2023-03-04T16:59:17.478Z,51.90
2023-03-04T17:01:46.416Z,52.00
2023-03-04T17:04:16.190Z,51.60
2023-03-04T17:06:45.603Z,51.40
2023-03-04T17:09:13.816Z,51.30
2023-03-04T17:11:42.093Z,50.70
2023-03-04T17:14:11.388Z,50.60
2023-03-04T17:16:39.610Z,50.40
2023-03-04T17:19:08.009Z,50.30
2023-03-04T17:21:37.562Z,51.00
2023-03-04T17:24:06.444Z,51.10
2023-03-04T17:26:34.606Z,51.10
2023-03-04T17:29:02.803Z,51.20
2023-03-04T17:31:31.018Z,51.10
2023-03-04T17:33:59.232Z,50.00
2023-03-04T17:36:30.303Z,49.30
2023-03-04T17:39:03.565Z,48.40
2023-03-04T17:41:32.005Z,48.60
2023-03-04T17:44:01.638Z,47.80
2023-03-04T17:46:30.385Z,47.80
2023-03-04T17:49:00.155Z,46.40
2023-03-04T17:51:33.034Z,46.40
2023-03-04T17:54:05.348Z,46.30
2023-03-04T17:56:39.326Z,45.90
2023-03-04T17:59:12.146Z,45.70
2023-03-04T18:01:40.547Z,45.90
2023-03-04T18:04:09.204Z,46.10
2023-03-04T18:06:37.435Z,46.60
2023-03-04T18:09:07.329Z,47.70
2023-03-04T18:11:37.798Z,48.30
2023-03-04T18:14:06.501Z,49.60
2023-03-04T18:16:37.803Z,49.70
2023-03-04T18:19:06.237Z,50.10
2023-03-04T18:21:34.488Z,50.60
2023-03-04T18:24:02.927Z,51.10
2023-03-04T18:26:35.630Z,51.00
2023-03-04T18:29:03.788Z,50.70
2023-03-04T18:31:32.889Z,50.60
2023-03-04T18:34:02.294Z,50.10
2023-03-04T18:36:30.652Z,50.50
2023-03-04T18:38:59.466Z,51.10
2023-03-04T18:41:28.337Z,52.60
2023-03-04T18:43:57.974Z,52.80
2023-03-04T18:46:40.655Z,52.60
2023-03-04T18:49:12.430Z,52.10
2023-03-04T18:51:40.634Z,53.30
2023-03-04T18:54:08.973Z,53.60
2023-03-04T18:56:39.961Z,53.20
2023-03-04T18:59:14.431Z,53.60
2023-03-04T19:01:42.994Z,53.00
2023-03-04T19:04:11.347Z,53.40
2023-03-04T19:06:39.797Z,53.10
2023-03-04T19:09:08.340Z,53.20
2023-03-04T19:11:36.562Z,52.80
2023-03-04T19:14:06.068Z,53.00
2023-03-04T19:16:35.783Z,53.70
2023-03-04T19:19:03.956Z,53.30
2023-03-04T19:21:32.430Z,53.60
2023-03-04T19:24:00.572Z,54.10
2023-03-04T19:26:28.841Z,54.50
2023-03-04T19:28:57.008Z,54.70
2023-03-04T19:31:25.925Z,54.70
2023-03-04T19:33:55.485Z,54.00
2023-03-04T19:36:25.355Z,53.70
2023-03-04T19:38:55.541Z,53.40
2023-03-04T19:41:24.567Z,53.70
2023-03-04T19:43:53.754Z,54.20
2023-03-04T19:46:22.028Z,54.60
2023-03-04T19:48:50.282Z,54.90
2023-03-04T19:51:21.435Z,54.90
2023-03-04T19:53:50.707Z,54.60
2023-03-04T19:56:19.114Z,54.40
2023-03-04T19:58:48.215Z,54.40
2023-03-04T20:01:27.658Z,54.60
2023-03-04T20:03:56.386Z,55.40
2023-03-04T20:06:27.039Z,55.50
2023-03-04T20:08:57.522Z,55.10
2023-03-04T20:11:25.974Z,54.90
2023-03-04T20:13:54.990Z,55.20
2023-03-04T20:16:23.173Z,54.80
2023-03-04T20:18:51.573Z,54.40
2023-03-04T20:21:19.899Z,54.00
2023-03-04T20:23:50.471Z,53.30
2023-03-04T20:26:19.384Z,52.20
2023-03-04T20:28:53.759Z,52.30
2023-03-04T20:31:23.713Z,52.60
2023-03-04T20:33:53.150Z,52.20
2023-03-04T20:36:23.191Z,53.00
2023-03-04T20:39:02.023Z,53.90
2023-03-04T20:41:32.104Z,54.70
2023-03-04T20:44:00.321Z,55.10
2023-03-04T20:46:41.002Z,54.10
2023-03-04T20:49:11.040Z,52.90
2023-03-04T20:51:39.811Z,54.30
2023-03-04T20:54:09.983Z,54.60
2023-03-04T20:56:38.823Z,54.40
2023-03-04T20:59:08.722Z,54.70
2023-03-04T21:01:38.369Z,54.70
2023-03-04T21:04:07.582Z,54.30
2023-03-04T21:06:37.065Z,52.00
2023-03-04T21:09:09.777Z,50.50
2023-03-04T21:11:41.142Z,50.40
2023-03-04T21:14:14.322Z,51.70
2023-03-04T21:16:44.441Z,52.10
2023-03-04T21:19:16.725Z,50.70
2023-03-04T21:21:45.737Z,49.40
2023-03-04T21:24:17.363Z,49.20
2023-03-04T21:26:47.715Z,49.10
2023-03-04T21:29:18.522Z,50.70
2023-03-04T21:31:50.792Z,51.60
2023-03-04T21:34:21.582Z,51.20
2023-03-04T21:36:50.058Z,49.60
2023-03-04T21:39:20.510Z,48.90
2023-03-04T21:41:57.411Z,50.40
2023-03-04T21:44:45.305Z,50.50
2023-03-04T21:47:16.737Z,51.60
2023-03-04T21:49:45.291Z,52.30
2023-03-04T21:52:19.589Z,52.80
2023-03-04T21:54:48.134Z,51.80
2023-03-04T21:57:17.968Z,50.20
2023-03-04T21:59:46.526Z,49.50
2023-03-04T22:02:19.742Z,49.10
2023-03-04T22:04:48.870Z,49.00
2023-03-04T22:07:17.407Z,48.70
2023-03-04T22:09:45.600Z,48.80
2023-03-04T22:12:14.900Z,49.50
2023-03-04T22:14:45.417Z,49.30
2023-03-04T22:17:14.775Z,48.80
2023-03-04T22:19:43.068Z,48.70
2023-03-04T22:22:11.283Z,48.50
2023-03-04T22:24:39.434Z,48.00
2023-03-04T22:27:08.146Z,48.00
2023-03-04T22:29:36.315Z,47.30
2023-03-04T22:32:06.709Z,46.80
2023-03-04T22:34:34.942Z,45.80
2023-03-04T22:37:03.127Z,46.10
2023-03-04T22:39:31.324Z,45.70
2023-03-04T22:42:00.035Z,45.10
2023-03-04T22:44:28.206Z,44.20
2023-03-04T22:46:56.408Z,43.80
2023-03-04T22:49:25.976Z,43.70
2023-03-04T22:51:54.164Z,43.60
2023-03-04T22:54:22.330Z,43.00
2023-03-04T22:56:50.691Z,42.80
2023-03-04T22:59:18.860Z,42.30
2023-03-04T23:01:48.390Z,42.30
2023-03-04T23:04:16.555Z,42.20
2023-03-04T23:06:46.085Z,41.70
2023-03-04T23:09:14.236Z,42.00
2023-03-04T23:11:42.498Z,42.10
2023-03-04T23:14:11.810Z,42.20
2023-03-04T23:16:43.197Z,42.90
2023-03-04T23:19:14.020Z,43.10
2023-03-04T23:21:42.417Z,43.20
2023-03-04T23:24:12.981Z,44.80
2023-03-04T23:26:43.092Z,45.70
2023-03-04T23:29:14.786Z,46.20
2023-03-04T23:31:44.176Z,46.20
2023-03-04T23:34:12.837Z,46.20
2023-03-04T23:36:41.020Z,46.50
2023-03-04T23:39:10.071Z,45.70
2023-03-04T23:41:39.808Z,46.50
2023-03-04T23:44:09.233Z,46.50
2023-03-04T23:46:38.589Z,45.70
2023-03-04T23:49:07.633Z,45.80
2023-03-04T23:51:36.071Z,46.20
2023-03-04T23:54:04.369Z,46.00
2023-03-04T23:56:34.451Z,45.20
2023-03-04T23:59:04.062Z,45.70
